Time;durP1;ratioP1;P1;durP2;ratioP2;P2;SDS_P1;SDS_P2;PMS_P1;PMS_P2;Temp;Humidity;BMP_temperature;BMP_pressure;BME280_temperature;BME280_humidity;BME280_pressure;Samples;Min_cycle;Max_cycle;Signal;HPM_P1;HPM_P2
2023/09/06 00:02:17;;;;;;;7.32;3.67;;;;;;;;;;5011320;28;20026;-74
2023/09/06 00:04:43;;;;;;;5.72;3.70;;;;;;;;;;5014178;28;20113;-73
2023/09/06 00:07:09;;;;;;;6.53;3.72;;;;;;;;;;5014802;28;20084;-72
2023/09/06 00:09:35;;;;;;;5.93;3.78;;;;;;;;;;5014602;28;20108;-74
2023/09/06 00:12:01;;;;;;;11.43;4.07;;;;;;;;;;5013665;28;20030;-74
2023/09/06 00:14:29;;;;;;;6.20;3.30;;;;;;;;;;5014326;28;20072;-73
2023/09/06 00:16:55;;;;;;;7.18;3.38;;;;;;;;;;5015577;28;20431;-73
2023/09/06 00:19:21;;;;;;;5.68;3.75;;;;;;;;;;5014555;28;20036;-73
2023/09/06 00:21:47;;;;;;;5.70;3.88;;;;;;;;;;5014055;28;20409;-73
2023/09/06 00:24:14;;;;;;;11.88;3.67;;;;;;;;;;5014377;28;20022;-73
2023/09/06 00:26:41;;;;;;;5.50;3.55;;;;;;;;;;5015419;28;20104;-73
2023/09/06 00:29:07;;;;;;;7.10;4.35;;;;;;;;;;5016401;28;20025;-74
2023/09/06 00:31:33;;;;;;;5.80;3.83;;;;;;;;;;5014629;28;20495;-72
2023/09/06 00:33:59;;;;;;;6.03;4.07;;;;;;;;;;5013489;28;20445;-72
2023/09/06 00:36:28;;;;;;;10.13;4.50;;;;;;;;;;5017323;28;20045;-73
2023/09/06 00:38:56;;;;;;;9.40;4.60;;;;;;;;;;5021232;28;20076;-73
2023/09/06 00:41:23;;;;;;;11.32;4.50;;;;;;;;;;5018369;28;20018;-73
2023/09/06 00:43:49;;;;;;;7.50;4.60;;;;;;;;;;5017871;28;20021;-73
2023/09/06 00:46:15;;;;;;;9.13;4.53;;;;;;;;;;5019610;28;20026;-73
2023/09/06 00:48:41;;;;;;;8.27;4.82;;;;;;;;;;5015878;28;20034;-73
2023/09/06 00:51:07;;;;;;;6.43;4.65;;;;;;;;;;5025077;28;20014;-73
2023/09/06 00:53:34;;;;;;;12.25;4.53;;;;;;;;;;5039033;28;20021;-73
2023/09/06 00:56:02;;;;;;;9.20;4.72;;;;;;;;;;5039471;28;20054;-73
2023/09/06 00:58:28;;;;;;;9.35;4.82;;;;;;;;;;5039189;28;20026;-73
2023/09/06 01:00:54;;;;;;;8.85;5.15;;;;;;;;;;5039228;28;20070;-72
2023/09/06 01:03:20;;;;;;;6.07;4.30;;;;;;;;;;5038895;28;20021;-73
2023/09/06 01:06:01;;;;;;;7.13;4.82;;;;;;;;;;5039018;28;20010;-75
2023/09/06 01:08:31;;;;;;;8.02;4.30;;;;;;;;;;5036860;28;20066;-75
2023/09/06 01:11:18;;;;;;;8.10;4.53;;;;;;;;;;5038384;28;20033;-75
2023/09/06 01:13:44;;;;;;;8.52;4.60;;;;;;;;;;5027729;28;20022;-73
2023/09/06 01:16:12;;;;;;;8.40;4.78;;;;;;;;;;5013195;28;20029;-72
2023/09/06 01:18:38;;;;;;;8.65;4.70;;;;;;;;;;5012907;28;20045;-73
2023/09/06 01:21:10;;;;;;;18.77;4.80;;;;;;;;;;5013171;28;20100;-73
2023/09/06 01:23:37;;;;;;;9.15;4.60;;;;;;;;;;5012845;28;20030;-75
2023/09/06 01:26:05;;;;;;;8.27;3.97;;;;;;;;;;5013178;28;20075;-74
2023/09/06 01:28:32;;;;;;;8.73;4.38;;;;;;;;;;5013205;28;20042;-75
2023/09/06 01:31:01;;;;;;;8.05;4.13;;;;;;;;;;5013705;28;20026;-73
2023/09/06 01:33:28;;;;;;;16.50;5.28;;;;;;;;;;5011546;28;20049;-73
2023/09/06 01:35:54;;;;;;;10.90;4.80;;;;;;;;;;5013063;28;20571;-73
2023/09/06 01:38:20;;;;;;;8.35;4.80;;;;;;;;;;5012812;28;20488;-74
2023/09/06 01:40:46;;;;;;;10.75;4.45;;;;;;;;;;5012663;28;20036;-73
2023/09/06 01:43:13;;;;;;;6.85;4.13;;;;;;;;;;5012455;28;20105;-73
2023/09/06 01:45:43;;;;;;;6.15;4.00;;;;;;;;;;5012962;28;20030;-72
2023/09/06 01:48:09;;;;;;;7.45;4.25;;;;;;;;;;5013183;28;20018;-74
2023/09/06 01:50:35;;;;;;;6.45;4.07;;;;;;;;;;5013285;28;20168;-74
2023/09/06 01:53:01;;;;;;;6.50;4.25;;;;;;;;;;5012571;28;20026;-74
2023/09/06 01:55:27;;;;;;;8.38;4.50;;;;;;;;;;5013099;28;20033;-73
2023/09/06 01:57:53;;;;;;;8.57;4.70;;;;;;;;;;5013216;28;20033;-73
2023/09/06 02:00:31;;;;;;;6.05;4.07;;;;;;;;;;5012664;28;20032;-73
2023/09/06 02:02:57;;;;;;;8.65;4.18;;;;;;;;;;5011909;28;20520;-73
2023/09/06 02:05:24;;;;;;;5.85;4.20;;;;;;;;;;5011188;28;20105;-74
2023/09/06 02:07:50;;;;;;;11.25;4.57;;;;;;;;;;5011075;28;20041;-74
2023/09/06 02:10:16;;;;;;;7.78;4.03;;;;;;;;;;5012427;28;20428;-74
2023/09/06 02:12:42;;;;;;;12.75;4.90;;;;;;;;;;5012003;28;20029;-73
2023/09/06 02:15:08;;;;;;;6.78;4.68;;;;;;;;;;5012485;28;20022;-73
2023/09/06 02:17:35;;;;;;;8.30;4.75;;;;;;;;;;5012268;28;20444;-73
2023/09/06 02:20:12;;;;;;;7.75;4.57;;;;;;;;;;5012097;28;20032;-73
2023/09/06 02:22:39;;;;;;;7.63;4.15;;;;;;;;;;5011787;28;20106;-73
2023/09/06 02:25:06;;;;;;;6.55;4.50;;;;;;;;;;5012107;28;20022;-72
2023/09/06 02:27:33;;;;;;;13.38;4.25;;;;;;;;;;5012125;28;20022;-73
2023/09/06 02:29:59;;;;;;;8.48;4.78;;;;;;;;;;5011538;28;20040;-73
2023/09/06 02:32:26;;;;;;;6.78;4.50;;;;;;;;;;5011284;28;20391;-77
2023/09/06 02:34:52;;;;;;;8.10;4.70;;;;;;;;;;5012309;28;20084;-74
2023/09/06 02:37:18;;;;;;;10.90;4.97;;;;;;;;;;5011967;28;20033;-73
2023/09/06 02:39:44;;;;;;;7.85;4.35;;;;;;;;;;5011930;28;20030;-72
2023/09/06 02:42:10;;;;;;;6.07;4.20;;;;;;;;;;5011488;28;20515;-73
2023/09/06 02:44:36;;;;;;;7.13;4.13;;;;;;;;;;5012587;28;20022;-75
2023/09/06 02:47:03;;;;;;;7.78;4.18;;;;;;;;;;5014533;28;20061;-72
2023/09/06 02:49:29;;;;;;;10.20;5.80;;;;;;;;;;5012634;28;20021;-74
2023/09/06 02:51:56;;;;;;;8.90;5.20;;;;;;;;;;5011807;28;20040;-75
2023/09/06 02:54:22;;;;;;;8.68;4.65;;;;;;;;;;5011817;28;20022;-73
2023/09/06 02:56:48;;;;;;;8.30;4.70;;;;;;;;;;5011749;28;20081;-75
2023/09/06 02:59:15;;;;;;;7.47;4.30;;;;;;;;;;5010489;28;20125;-74
2023/09/06 03:01:44;;;;;;;5.43;4.15;;;;;;;;;;5011369;28;20420;-74
2023/09/06 03:04:13;;;;;;;8.63;4.18;;;;;;;;;;5013114;28;20377;-77
2023/09/06 03:06:43;;;;;;;7.50;4.13;;;;;;;;;;5007529;28;20037;-73
2023/09/06 03:09:12;;;;;;;7.88;4.03;;;;;;;;;;5012667;28;20030;-72
2023/09/06 03:11:38;;;;;;;10.48;4.45;;;;;;;;;;4999698;28;20030;-73
2023/09/06 03:14:05;;;;;;;7.43;4.35;;;;;;;;;;5011851;28;20061;-72
2023/09/06 03:16:42;;;;;;;7.53;4.15;;;;;;;;;;5014071;28;20033;-74
2023/09/06 03:19:09;;;;;;;8.25;4.40;;;;;;;;;;5013063;28;20113;-73
2023/09/06 03:21:38;;;;;;;6.65;4.32;;;;;;;;;;5014262;28;20457;-72
2023/09/06 03:24:11;;;;;;;6.47;4.68;;;;;;;;;;5028038;28;20029;-73
2023/09/06 03:26:39;;;;;;;8.40;4.47;;;;;;;;;;4998556;28;20097;-75
2023/09/06 03:29:10;;;;;;;9.85;4.82;;;;;;;;;;5013636;28;20029;-72
2023/09/06 03:31:42;;;;;;;10.48;5.50;;;;;;;;;;5002193;28;20049;-72
2023/09/06 03:34:08;;;;;;;9.57;4.70;;;;;;;;;;5022644;28;20033;-72
2023/09/06 03:36:35;;;;;;;10.85;4.50;;;;;;;;;;5009688;28;20045;-76
2023/09/06 03:39:05;;;;;;;7.30;4.28;;;;;;;;;;5015323;28;20030;-73
2023/09/06 03:41:32;;;;;;;6.07;3.88;;;;;;;;;;5012381;28;20117;-72
2023/09/06 03:43:58;;;;;;;7.65;4.53;;;;;;;;;;5015141;28;20040;-75
2023/09/06 03:46:25;;;;;;;10.75;4.40;;;;;;;;;;5014491;28;20022;-73
2023/09/06 03:48:51;;;;;;;8.63;4.38;;;;;;;;;;5015375;28;20032;-73
2023/09/06 03:51:17;;;;;;;8.85;4.22;;;;;;;;;;5016186;28;20030;-74
2023/09/06 03:53:43;;;;;;;7.45;4.18;;;;;;;;;;5014147;28;20022;-73
2023/09/06 03:56:10;;;;;;;5.55;3.95;;;;;;;;;;5013951;28;20033;-73
2023/09/06 03:58:36;;;;;;;7.78;4.10;;;;;;;;;;5015477;28;20022;-75
2023/09/06 04:01:03;;;;;;;7.95;4.93;;;;;;;;;;5014821;28;20041;-74
2023/09/06 04:03:30;;;;;;;10.95;5.80;;;;;;;;;;5014416;28;20472;-72
2023/09/06 04:05:57;;;;;;;9.68;4.82;;;;;;;;;;5015124;28;20025;-72
2023/09/06 04:08:28;;;;;;;9.30;4.93;;;;;;;;;;5015379;28;20469;-74
2023/09/06 04:10:54;;;;;;;12.07;5.00;;;;;;;;;;5014495;28;20037;-73
2023/09/06 04:13:20;;;;;;;7.45;4.22;;;;;;;;;;5014057;28;20232;-73
2023/09/06 04:15:46;;;;;;;5.55;4.50;;;;;;;;;;5015177;28;20030;-73
2023/09/06 04:18:12;;;;;;;7.00;5.15;;;;;;;;;;5014894;28;20033;-76
2023/09/06 04:20:39;;;;;;;7.80;4.90;;;;;;;;;;5015853;28;20022;-74
2023/09/06 04:23:07;;;;;;;5.95;4.40;;;;;;;;;;5018251;28;20022;-77
2023/09/06 04:25:36;;;;;;;8.77;4.90;;;;;;;;;;5018095;28;20026;-72
2023/09/06 04:28:07;;;;;;;7.63;4.80;;;;;;;;;;5014278;28;20029;-72
2023/09/06 04:30:33;;;;;;;12.77;5.57;;;;;;;;;;5014081;28;20112;-73
2023/09/06 04:32:59;;;;;;;9.50;5.00;;;;;;;;;;5015015;28;20074;-74
2023/09/06 04:35:37;;;;;;;8.70;5.68;;;;;;;;;;5013855;28;20041;-78
2023/09/06 04:38:03;;;;;;;6.25;4.50;;;;;;;;;;5016407;28;20030;-77
2023/09/06 04:40:29;;;;;;;11.38;4.97;;;;;;;;;;5014689;28;20028;-73
2023/09/06 04:42:55;;;;;;;8.95;4.35;;;;;;;;;;5013878;28;20465;-72
2023/09/06 04:45:21;;;;;;;10.68;4.97;;;;;;;;;;5013931;28;20022;-73
2023/09/06 04:47:47;;;;;;;10.10;4.93;;;;;;;;;;5013805;28;20026;-74
2023/09/06 04:50:13;;;;;;;14.52;5.47;;;;;;;;;;5013482;28;20498;-75
2023/09/06 04:52:47;;;;;;;9.77;5.68;;;;;;;;;;5013013;28;20052;-76
2023/09/06 04:55:14;;;;;;;10.65;5.03;;;;;;;;;;5012476;28;20437;-76
2023/09/06 04:57:45;;;;;;;11.20;5.10;;;;;;;;;;5013884;28;20046;-74
2023/09/06 05:00:17;;;;;;;11.57;5.63;;;;;;;;;;5014168;28;20026;-74
2023/09/06 05:02:43;;;;;;;12.27;6.05;;;;;;;;;;5018060;28;20025;-72
2023/09/06 05:05:09;;;;;;;12.77;5.95;;;;;;;;;;5019862;28;20052;-72
2023/09/06 05:07:36;;;;;;;9.77;5.60;;;;;;;;;;5020235;28;20022;-73
2023/09/06 05:10:03;;;;;;;9.02;5.28;;;;;;;;;;5020341;28;20038;-75
2023/09/06 05:12:29;;;;;;;14.18;5.28;;;;;;;;;;5021147;28;20166;-71
2023/09/06 05:14:55;;;;;;;11.05;5.20;;;;;;;;;;5020162;28;20495;-73
2023/09/06 05:17:23;;;;;;;8.18;4.88;;;;;;;;;;5014826;28;20026;-72
2023/09/06 05:19:51;;;;;;;9.27;5.38;;;;;;;;;;5013750;28;20030;-74
2023/09/06 05:22:17;;;;;;;8.50;5.38;;;;;;;;;;5013232;28;20022;-74
2023/09/06 05:24:43;;;;;;;11.75;6.03;;;;;;;;;;5012870;28;20388;-73
2023/09/06 05:27:09;;;;;;;11.85;5.57;;;;;;;;;;5012572;28;20022;-73
2023/09/06 05:29:35;;;;;;;11.63;6.28;;;;;;;;;;5009861;28;20026;-74
2023/09/06 05:32:01;;;;;;;9.85;5.72;;;;;;;;;;5012031;28;20092;-73
2023/09/06 05:34:29;;;;;;;14.98;6.68;;;;;;;;;;5013501;28;20068;-72
2023/09/06 05:36:55;;;;;;;11.52;5.88;;;;;;;;;;5010330;28;20057;-74
2023/09/06 05:39:21;;;;;;;10.82;5.30;;;;;;;;;;5010948;28;20026;-72
2023/09/06 05:41:50;;;;;;;12.15;5.80;;;;;;;;;;5013747;28;20083;-73
2023/09/06 05:44:16;;;;;;;8.68;5.50;;;;;;;;;;5012412;28;20551;-72
2023/09/06 05:46:43;;;;;;;13.15;5.90;;;;;;;;;;5017540;28;20041;-74
2023/09/06 05:49:09;;;;;;;11.35;7.35;;;;;;;;;;5016425;28;20055;-73
2023/09/06 05:51:35;;;;;;;12.18;6.35;;;;;;;;;;5014979;28;20030;-72
2023/09/06 05:54:01;;;;;;;10.48;6.40;;;;;;;;;;5014110;28;20029;-72
2023/09/06 05:56:27;;;;;;;10.15;5.60;;;;;;;;;;5012216;28;20033;-71
2023/09/06 05:58:53;;;;;;;12.60;6.18;;;;;;;;;;5014127;28;20425;-72
2023/09/06 06:01:19;;;;;;;9.68;5.53;;;;;;;;;;5012568;28;20040;-75
2023/09/06 06:03:45;;;;;;;11.40;6.25;;;;;;;;;;5010006;28;20115;-72
2023/09/06 06:06:16;;;;;;;13.55;6.57;;;;;;;;;;5008776;28;20456;-72
2023/09/06 06:08:42;;;;;;;9.32;6.50;;;;;;;;;;5012700;28;20527;-71
2023/09/06 06:11:08;;;;;;;11.25;7.03;;;;;;;;;;5012401;28;20493;-77
2023/09/06 06:13:34;;;;;;;13.38;7.35;;;;;;;;;;5014020;28;20033;-76
2023/09/06 06:16:00;;;;;;;10.77;7.05;;;;;;;;;;5012802;28;20030;-73
2023/09/06 06:18:26;;;;;;;18.05;7.20;;;;;;;;;;5012782;28;20032;-72
2023/09/06 06:20:53;;;;;;;15.63;7.63;;;;;;;;;;5011019;28;20465;-72
2023/09/06 06:23:19;;;;;;;15.90;7.82;;;;;;;;;;5012296;28;20018;-72
2023/09/06 06:25:45;;;;;;;15.00;7.45;;;;;;;;;;5011716;28;20052;-72
2023/09/06 06:28:11;;;;;;;15.43;7.32;;;;;;;;;;5011667;28;20473;-73
2023/09/06 06:30:37;;;;;;;17.42;7.57;;;;;;;;;;5011664;28;20156;-73
2023/09/06 06:33:03;;;;;;;15.20;7.15;;;;;;;;;;5011483;28;20022;-73
2023/09/06 06:35:29;;;;;;;14.50;6.75;;;;;;;;;;5011803;28;20120;-72
2023/09/06 06:37:55;;;;;;;8.73;6.13;;;;;;;;;;5011221;28;20156;-72
2023/09/06 06:40:22;;;;;;;12.82;6.75;;;;;;;;;;5011461;28;20033;-73
2023/09/06 06:42:48;;;;;;;9.35;5.95;;;;;;;;;;5012492;28;20084;-73
2023/09/06 06:45:14;;;;;;;13.57;5.75;;;;;;;;;;5012274;28;20477;-75
2023/09/06 06:47:40;;;;;;;10.70;5.68;;;;;;;;;;5012091;28;20026;-75
2023/09/06 06:50:06;;;;;;;16.30;6.53;;;;;;;;;;5011826;28;20026;-76
2023/09/06 06:52:35;;;;;;;16.45;7.90;;;;;;;;;;5011334;28;20033;-74
2023/09/06 06:55:01;;;;;;;28.50;13.95;;;;;;;;;;5010167;28;20028;-73
2023/09/06 06:57:27;;;;;;;13.95;7.50;;;;;;;;;;5011461;28;20105;-73
2023/09/06 06:59:53;;;;;;;25.05;10.50;;;;;;;;;;5011710;28;20061;-75
2023/09/06 07:02:18;;;;;;;17.73;8.80;;;;;;;;;;5010660;28;20057;-74
2023/09/06 07:04:44;;;;;;;21.30;7.88;;;;;;;;;;5011653;28;20026;-73
2023/09/06 07:07:11;;;;;;;17.33;10.05;;;;;;;;;;5011529;28;20036;-74
2023/09/06 07:09:37;;;;;;;10.18;5.68;;;;;;;;;;5011227;28;20097;-74
2023/09/06 07:12:04;;;;;;;20.95;8.95;;;;;;;;;;5010619;28;20516;-74
2023/09/06 07:14:30;;;;;;;17.23;9.60;;;;;;;;;;5011238;28;20037;-73
2023/09/06 07:16:56;;;;;;;26.42;9.57;;;;;;;;;;5012368;28;20022;-74
2023/09/06 07:19:22;;;;;;;14.05;5.40;;;;;;;;;;5014764;28;20033;-74
2023/09/06 07:21:49;;;;;;;15.82;5.32;;;;;;;;;;5014489;28;20092;-72
2023/09/06 07:24:15;;;;;;;12.30;5.38;;;;;;;;;;5014932;28;20029;-72
2023/09/06 07:26:41;;;;;;;9.73;5.40;;;;;;;;;;5015282;28;20030;-73
2023/09/06 07:29:07;;;;;;;12.45;5.40;;;;;;;;;;5015083;28;20030;-73
2023/09/06 07:31:33;;;;;;;14.93;5.95;;;;;;;;;;5014939;28;20486;-74
2023/09/06 07:33:59;;;;;;;16.52;5.68;;;;;;;;;;5014354;28;20070;-74
2023/09/06 07:36:25;;;;;;;25.77;9.32;;;;;;;;;;5014934;28;20057;-72
2023/09/06 07:38:54;;;;;;;17.80;7.25;;;;;;;;;;5014792;28;20026;-74
2023/09/06 07:41:20;;;;;;;17.17;5.55;;;;;;;;;;5014677;28;20033;-73
2023/09/06 07:43:46;;;;;;;13.02;6.07;;;;;;;;;;5014316;28;20030;-74
2023/09/06 07:46:12;;;;;;;21.25;8.23;;;;;;;;;;5015061;28;20100;-74
2023/09/06 07:48:38;;;;;;;15.63;5.53;;;;;;;;;;5015008;28;20058;-74
2023/09/06 07:51:05;;;;;;;14.02;5.28;;;;;;;;;;5015677;28;20018;-73
2023/09/06 07:53:31;;;;;;;13.55;5.45;;;;;;;;;;5014307;28;20333;-73
2023/09/06 07:55:57;;;;;;;15.30;5.25;;;;;;;;;;5014520;28;20030;-73
2023/09/06 07:58:23;;;;;;;11.30;4.88;;;;;;;;;;5015402;28;20049;-74
2023/09/06 08:00:50;;;;;;;18.27;5.18;;;;;;;;;;5016433;28;20025;-75
2023/09/06 08:03:16;;;;;;;10.43;4.78;;;;;;;;;;5014417;28;20026;-73
2023/09/06 08:05:42;;;;;;;13.15;4.45;;;;;;;;;;5014588;28;20026;-72
2023/09/06 08:08:09;;;;;;;12.00;4.50;;;;;;;;;;5013347;28;20030;-74
2023/09/06 08:10:36;;;;;;;8.95;4.20;;;;;;;;;;5014982;28;20026;-75
2023/09/06 08:13:03;;;;;;;13.50;4.82;;;;;;;;;;5014716;28;20029;-73
2023/09/06 08:15:29;;;;;;;9.80;4.18;;;;;;;;;;5014420;28;20022;-74
2023/09/06 08:17:55;;;;;;;9.85;4.20;;;;;;;;;;5014282;28;20270;-74
2023/09/06 08:20:21;;;;;;;22.48;4.15;;;;;;;;;;5014393;28;20037;-72
2023/09/06 08:22:47;;;;;;;12.77;4.30;;;;;;;;;;5012670;28;20037;-72
2023/09/06 08:25:14;;;;;;;13.75;3.88;;;;;;;;;;5014209;28;20388;-73
2023/09/06 08:27:40;;;;;;;17.77;3.88;;;;;;;;;;5013798;28;20042;-74
2023/09/06 08:30:16;;;;;;;12.70;4.10;;;;;;;;;;5011734;28;20044;-73
2023/09/06 08:32:43;;;;;;;9.65;3.40;;;;;;;;;;5013326;28;20101;-73
2023/09/06 08:35:11;;;;;;;15.43;3.72;;;;;;;;;;5014177;28;20111;-74
2023/09/06 08:37:38;;;;;;;11.57;3.70;;;;;;;;;;5013928;28;20052;-74
2023/09/06 08:40:07;;;;;;;5.97;3.33;;;;;;;;;;5012894;28;20404;-72
2023/09/06 08:42:34;;;;;;;8.18;3.10;;;;;;;;;;5013525;28;20049;-75
2023/09/06 08:45:01;;;;;;;11.82;3.20;;;;;;;;;;5013804;28;20022;-72
2023/09/06 08:47:28;;;;;;;15.30;3.00;;;;;;;;;;5013714;28;20068;-71
2023/09/06 08:49:54;;;;;;;9.98;3.35;;;;;;;;;;5014072;28;20030;-71
2023/09/06 08:52:20;;;;;;;11.30;3.08;;;;;;;;;;5013204;28;20473;-72
2023/09/06 08:54:48;;;;;;;11.73;2.67;;;;;;;;;;5013825;28;20080;-74
2023/09/06 08:57:14;;;;;;;17.50;2.95;;;;;;;;;;5013566;28;20058;-73
2023/09/06 08:59:41;;;;;;;6.82;2.60;;;;;;;;;;5013449;28;20030;-73
2023/09/06 09:02:12;;;;;;;11.75;2.53;;;;;;;;;;5013806;28;20088;-75
2023/09/06 09:04:41;;;;;;;4.28;2.05;;;;;;;;;;5013975;28;20325;-74
2023/09/06 09:07:08;;;;;;;8.02;2.63;;;;;;;;;;5013503;28;20018;-72
2023/09/06 09:09:34;;;;;;;5.35;2.20;;;;;;;;;;5013309;28;20026;-73
2023/09/06 09:12:00;;;;;;;7.80;2.50;;;;;;;;;;5013008;28;20477;-73
2023/09/06 09:14:26;;;;;;;5.03;2.03;;;;;;;;;;5013162;28;20055;-74
2023/09/06 09:16:53;;;;;;;9.32;2.25;;;;;;;;;;5013548;28;20425;-74
2023/09/06 09:19:20;;;;;;;8.50;2.50;;;;;;;;;;5013863;28;20026;-73
2023/09/06 09:21:46;;;;;;;7.88;1.90;;;;;;;;;;5013645;28;20032;-74
2023/09/06 09:24:12;;;;;;;7.90;2.00;;;;;;;;;;5013354;28;20068;-74
2023/09/06 09:26:41;;;;;;;4.88;2.58;;;;;;;;;;5013880;28;20021;-74
2023/09/06 09:29:12;;;;;;;4.90;2.00;;;;;;;;;;5013449;28;20105;-74
2023/09/06 09:31:40;;;;;;;3.47;2.15;;;;;;;;;;5013609;28;20109;-74
2023/09/06 09:34:06;;;;;;;11.75;1.88;;;;;;;;;;5012970;28;20029;-73
2023/09/06 09:36:34;;;;;;;8.65;2.00;;;;;;;;;;5014113;28;20025;-73
2023/09/06 09:39:06;;;;;;;10.50;2.47;;;;;;;;;;5014781;28;20022;-73
2023/09/06 09:41:32;;;;;;;5.53;2.25;;;;;;;;;;5014636;28;20161;-74
2023/09/06 09:44:13;;;;;;;9.35;2.25;;;;;;;;;;5012888;28;20485;-72
2023/09/06 09:46:39;;;;;;;6.45;2.00;;;;;;;;;;5011964;28;20481;-73
2023/09/06 09:49:07;;;;;;;9.95;2.20;;;;;;;;;;5013265;28;20026;-75
2023/09/06 09:51:33;;;;;;;10.95;2.00;;;;;;;;;;5013646;28;20033;-74
2023/09/06 09:54:01;;;;;;;7.80;2.05;;;;;;;;;;5015817;28;20025;-74
2023/09/06 09:56:28;;;;;;;5.72;2.05;;;;;;;;;;5014399;28;20033;-76
2023/09/06 09:58:54;;;;;;;4.43;1.98;;;;;;;;;;5017363;28;20094;-74
2023/09/06 10:01:22;;;;;;;7.68;2.58;;;;;;;;;;5022022;28;20038;-73
2023/09/06 10:03:49;;;;;;;5.72;2.10;;;;;;;;;;5020954;28;20017;-73
2023/09/06 10:06:16;;;;;;;6.85;2.10;;;;;;;;;;5026873;28;20026;-73
2023/09/06 10:08:44;;;;;;;7.13;1.73;;;;;;;;;;5028806;28;20117;-74
2023/09/06 10:11:10;;;;;;;5.35;1.83;;;;;;;;;;5030003;28;20030;-73
2023/09/06 10:13:37;;;;;;;4.75;2.15;;;;;;;;;;5017254;28;20026;-73
2023/09/06 10:16:04;;;;;;;5.60;1.90;;;;;;;;;;5020750;28;20018;-73
2023/09/06 10:18:30;;;;;;;7.43;1.90;;;;;;;;;;5019768;28;20096;-73
2023/09/06 10:20:56;;;;;;;6.60;2.42;;;;;;;;;;5014326;28;20477;-74
2023/09/06 10:23:22;;;;;;;6.03;1.70;;;;;;;;;;5012374;28;20066;-72
2023/09/06 10:25:52;;;;;;;8.00;1.77;;;;;;;;;;5012451;28;20029;-73
2023/09/06 10:28:20;;;;;;;4.32;1.63;;;;;;;;;;5012339;28;20029;-73
2023/09/06 10:30:51;;;;;;;9.52;1.75;;;;;;;;;;5012174;28;20022;-73
2023/09/06 10:33:42;;;;;;;5.20;3.33;;;;;;;;;;5011711;28;20025;-73
2023/09/06 10:36:09;;;;;;;4.28;1.60;;;;;;;;;;5002245;28;20120;-72
2023/09/06 10:38:54;;;;;;;8.45;3.30;;;;;;;;;;5011860;28;20026;-76
2023/09/06 10:41:21;;;;;;;4.88;1.95;;;;;;;;;;5011559;28;20095;-76
2023/09/06 10:43:59;;;;;;;4.07;2.15;;;;;;;;;;5011736;28;20026;-75
2023/09/06 10:46:26;;;;;;;3.85;1.88;;;;;;;;;;5013245;28;20025;-72
2023/09/06 10:49:14;;;;;;;4.35;1.48;;;;;;;;;;5013033;28;20033;-72
2023/09/06 10:51:55;;;;;;;4.00;2.17;;;;;;;;;;5012085;28;20229;-73
2023/09/06 10:54:23;;;;;;;3.60;1.60;;;;;;;;;;5017059;28;20049;-75
2023/09/06 10:56:59;;;;;;;4.30;1.65;;;;;;;;;;5016064;28;20125;-74
2023/09/06 10:59:25;;;;;;;4.53;1.88;;;;;;;;;;5017632;28;20064;-73
2023/09/06 11:02:10;;;;;;;6.72;1.80;;;;;;;;;;5017159;28;20025;-73
2023/09/06 11:04:36;;;;;;;2.47;1.33;;;;;;;;;;5016353;28;20026;-77
2023/09/06 11:07:10;;;;;;;7.40;1.30;;;;;;;;;;5016932;28;20469;-73
2023/09/06 11:09:49;;;;;;;5.68;1.30;;;;;;;;;;5016328;28;20018;-73
2023/09/06 11:12:15;;;;;;;9.32;1.63;;;;;;;;;;5016257;28;20512;-73
2023/09/06 11:14:42;;;;;;;5.13;1.48;;;;;;;;;;5016648;28;20030;-72
2023/09/06 11:17:08;;;;;;;5.10;1.50;;;;;;;;;;5016555;28;20079;-73
2023/09/06 11:19:37;;;;;;;1.95;1.50;;;;;;;;;;5016936;28;20032;-73
2023/09/06 11:22:03;;;;;;;12.15;4.32;;;;;;;;;;5016386;28;20030;-74
2023/09/06 11:24:34;;;;;;;5.80;1.90;;;;;;;;;;5015442;28;20022;-73
2023/09/06 11:27:03;;;;;;;2.35;1.38;;;;;;;;;;5015394;28;20029;-72
2023/09/06 11:29:32;;;;;;;3.20;1.42;;;;;;;;;;5015284;28;20020;-73
2023/09/06 11:32:15;;;;;;;4.03;1.45;;;;;;;;;;5015197;28;20129;-75
2023/09/06 11:34:45;;;;;;;5.68;1.50;;;;;;;;;;5015625;28;20511;-75
2023/09/06 11:37:13;;;;;;;2.55;1.20;;;;;;;;;;5015172;28;20034;-73
2023/09/06 11:39:42;;;;;;;4.72;1.50;;;;;;;;;;5015300;28;20033;-74
2023/09/06 11:42:11;;;;;;;6.78;1.90;;;;;;;;;;5015651;28;20029;-74
2023/09/06 11:44:43;;;;;;;6.85;1.48;;;;;;;;;;5017310;28;20021;-73
2023/09/06 11:47:09;;;;;;;4.28;1.45;;;;;;;;;;4999248;28;20108;-73
2023/09/06 11:49:35;;;;;;;4.75;1.83;;;;;;;;;;5015670;28;20091;-72
2023/09/06 11:52:05;;;;;;;7.80;1.45;;;;;;;;;;5015261;28;20095;-75
2023/09/06 11:54:32;;;;;;;2.80;1.10;;;;;;;;;;5014096;28;20060;-74
2023/09/06 11:56:58;;;;;;;5.25;1.40;;;;;;;;;;5014971;28;20481;-74
2023/09/06 11:59:25;;;;;;;2.95;1.50;;;;;;;;;;5013742;28;20055;-74
2023/09/06 12:01:58;;;;;;;2.83;1.30;;;;;;;;;;5014705;28;20030;-74
2023/09/06 12:04:26;;;;;;;2.80;1.30;;;;;;;;;;5013321;28;20025;-73
2023/09/06 12:06:54;;;;;;;3.67;1.23;;;;;;;;;;5014362;28;20018;-73
2023/09/06 12:09:20;;;;;;;4.68;1.88;;;;;;;;;;5014460;28;20022;-74
2023/09/06 12:11:46;;;;;;;3.88;1.55;;;;;;;;;;5014354;28;20434;-73
2023/09/06 12:14:13;;;;;;;3.03;1.40;;;;;;;;;;5014343;28;20061;-74
2023/09/06 12:16:39;;;;;;;6.18;1.30;;;;;;;;;;5014124;28;20481;-72
2023/09/06 12:19:10;;;;;;;3.83;1.20;;;;;;;;;;5014565;28;20473;-74
2023/09/06 12:21:36;;;;;;;2.95;1.20;;;;;;;;;;5010341;28;20042;-74
2023/09/06 12:24:02;;;;;;;6.00;1.45;;;;;;;;;;5000920;28;20093;-74
2023/09/06 12:26:28;;;;;;;13.90;2.53;;;;;;;;;;5014214;28;20018;-74
2023/09/06 12:28:54;;;;;;;6.05;1.60;;;;;;;;;;4997543;28;20030;-72
2023/09/06 12:31:20;;;;;;;4.85;1.45;;;;;;;;;;5013430;28;20030;-73
2023/09/06 12:33:49;;;;;;;5.88;1.70;;;;;;;;;;5004804;28;20038;-73
2023/09/06 12:36:17;;;;;;;4.57;1.80;;;;;;;;;;5008573;28;20101;-74
2023/09/06 12:38:43;;;;;;;3.38;1.20;;;;;;;;;;5013694;28;20025;-73
2023/09/06 12:41:09;;;;;;;2.13;1.75;;;;;;;;;;5014409;28;20041;-76
2023/09/06 12:43:36;;;;;;;2.97;1.40;;;;;;;;;;5013891;28;20061;-73
2023/09/06 12:46:02;;;;;;;3.00;1.30;;;;;;;;;;5013911;28;20037;-74
2023/09/06 12:48:28;;;;;;;3.20;1.52;;;;;;;;;;5013843;28;20025;-74
2023/09/06 12:50:54;;;;;;;4.10;1.60;;;;;;;;;;5012281;28;20026;-75
2023/09/06 12:53:22;;;;;;;5.25;1.65;;;;;;;;;;5025677;28;20113;-74
2023/09/06 12:55:48;;;;;;;2.03;1.60;;;;;;;;;;5004893;28;20084;-73
2023/09/06 12:58:14;;;;;;;7.47;1.88;;;;;;;;;;5009290;28;20469;-73
2023/09/06 13:00:41;;;;;;;3.38;1.35;;;;;;;;;;5013943;28;20033;-74
2023/09/06 13:03:07;;;;;;;7.63;1.90;;;;;;;;;;5007257;28;20030;-74
2023/09/06 13:05:33;;;;;;;3.35;1.60;;;;;;;;;;5012706;28;20018;-74
2023/09/06 13:08:00;;;;;;;3.13;1.67;;;;;;;;;;5013523;28;20462;-75
2023/09/06 13:10:26;;;;;;;3.78;1.42;;;;;;;;;;5013574;28;20018;-74
2023/09/06 13:12:52;;;;;;;4.78;1.67;;;;;;;;;;5013430;28;20041;-74
2023/09/06 13:15:18;;;;;;;4.78;2.42;;;;;;;;;;5012860;28;20058;-75
2023/09/06 13:17:44;;;;;;;4.68;1.90;;;;;;;;;;5012956;28;20053;-77
2023/09/06 13:20:10;;;;;;;5.75;1.70;;;;;;;;;;5010260;28;20042;-75
2023/09/06 13:22:41;;;;;;;5.57;1.67;;;;;;;;;;5010538;28;20037;-75
2023/09/06 13:25:08;;;;;;;3.55;1.58;;;;;;;;;;5012899;28;20049;-75
2023/09/06 13:27:34;;;;;;;2.55;1.67;;;;;;;;;;5012405;28;20026;-74
2023/09/06 13:30:00;;;;;;;3.17;1.33;;;;;;;;;;5010718;28;20046;-74
2023/09/06 13:32:26;;;;;;;3.33;1.73;;;;;;;;;;5012247;28;20025;-75
2023/09/06 13:34:54;;;;;;;7.93;1.55;;;;;;;;;;5012433;28;20030;-75
2023/09/06 13:37:20;;;;;;;7.53;1.30;;;;;;;;;;5011957;28;20014;-74
2023/09/06 13:39:46;;;;;;;2.75;1.17;;;;;;;;;;5011953;28;20025;-75
2023/09/06 13:42:12;;;;;;;4.80;1.30;;;;;;;;;;5012177;28;20392;-74
2023/09/06 13:44:38;;;;;;;9.95;1.55;;;;;;;;;;5012331;28;20034;-74
2023/09/06 13:47:04;;;;;;;7.35;1.00;;;;;;;;;;5010653;28;20072;-73
2023/09/06 13:49:30;;;;;;;4.30;1.10;;;;;;;;;;5011893;28;20448;-74
2023/09/06 13:51:56;;;;;;;4.95;1.40;;;;;;;;;;5012313;28;20105;-74
2023/09/06 13:54:22;;;;;;;2.45;1.35;;;;;;;;;;5011806;28;20489;-74
2023/09/06 13:56:51;;;;;;;3.58;1.23;;;;;;;;;;5010137;28;20413;-75
2023/09/06 13:59:17;;;;;;;3.45;1.40;;;;;;;;;;5012246;28;20017;-75
2023/09/06 14:01:43;;;;;;;8.07;1.40;;;;;;;;;;5012437;28;20054;-74
2023/09/06 14:04:09;;;;;;;3.42;1.60;;;;;;;;;;5011746;28;20076;-74
2023/09/06 14:06:38;;;;;;;5.00;1.95;;;;;;;;;;5012074;28;20480;-74
2023/09/06 14:09:04;;;;;;;1.75;1.10;;;;;;;;;;5012186;28;20025;-74
2023/09/06 14:11:30;;;;;;;2.55;1.27;;;;;;;;;;5012147;28;20060;-75
2023/09/06 14:13:56;;;;;;;3.33;1.48;;;;;;;;;;5011812;28;20379;-78
2023/09/06 14:16:21;;;;;;;3.60;0.90;;;;;;;;;;5014022;28;20094;-78
2023/09/06 14:18:47;;;;;;;3.72;1.20;;;;;;;;;;5014914;28;20173;-76
2023/09/06 14:21:20;;;;;;;4.25;1.52;;;;;;;;;;5014043;28;20026;-75
2023/09/06 14:23:46;;;;;;;2.90;1.17;;;;;;;;;;5012133;28;20472;-74
2023/09/06 14:26:12;;;;;;;3.78;1.30;;;;;;;;;;5011165;28;20319;-74
2023/09/06 14:28:38;;;;;;;3.75;2.67;;;;;;;;;;5012247;28;20057;-73
2023/09/06 14:31:10;;;;;;;4.68;1.00;;;;;;;;;;5011832;28;20032;-74
2023/09/06 14:33:36;;;;;;;3.38;1.40;;;;;;;;;;5011468;28;20026;-74
2023/09/06 14:36:04;;;;;;;2.45;1.10;;;;;;;;;;5012430;28;20040;-75
2023/09/06 14:38:31;;;;;;;4.90;1.40;;;;;;;;;;5014154;28;20037;-78
2023/09/06 14:40:57;;;;;;;1.88;1.40;;;;;;;;;;5021315;28;20033;-78